createdAt,value
2023-03-22T00:00:17.531Z,100.00
2023-03-22T00:02:45.985Z,100.00
2023-03-22T00:05:14.682Z,100.00
2023-03-22T00:07:43.552Z,100.00
2023-03-22T00:10:12.587Z,100.00
2023-03-22T00:12:40.893Z,100.00
2023-03-22T00:15:11.231Z,100.00
2023-03-22T00:17:42.107Z,100.00
2023-03-22T00:20:12.694Z,100.00
2023-03-22T00:22:41.433Z,100.00
2023-03-22T00:25:10.763Z,100.00
2023-03-22T00:27:39.766Z,100.00
2023-03-22T00:30:10.374Z,100.00
2023-03-22T00:32:42.369Z,100.00
2023-03-22T00:35:12.574Z,100.00
2023-03-22T00:37:41.406Z,100.00
2023-03-22T00:40:13.289Z,100.00
2023-03-22T00:42:42.905Z,100.00
2023-03-22T00:45:13.376Z,100.00
2023-03-22T00:47:43.620Z,100.00
2023-03-22T00:50:12.701Z,100.00
2023-03-22T00:52:41.194Z,100.00
2023-03-22T00:55:10.908Z,100.00
2023-03-22T00:57:39.413Z,100.00
2023-03-22T01:00:13.799Z,100.00
2023-03-22T01:02:44.605Z,100.00
2023-03-22T01:05:22.016Z,100.00
2023-03-22T01:07:51.784Z,100.00
2023-03-22T01:10:20.436Z,100.00
2023-03-22T01:12:49.551Z,100.00
2023-03-22T01:15:18.387Z,100.00
2023-03-22T01:17:48.213Z,100.00
2023-03-22T01:20:16.840Z,100.00
2023-03-22T01:22:45.722Z,100.00
2023-03-22T01:25:15.401Z,100.00
2023-03-22T01:27:44.094Z,100.00
2023-03-22T01:30:14.475Z,100.00
2023-03-22T01:32:43.244Z,100.00
2023-03-22T01:35:14.068Z,100.00
2023-03-22T01:37:44.506Z,100.00
2023-03-22T01:40:16.486Z,100.00
2023-03-22T01:42:46.725Z,100.00
2023-03-22T01:45:43.189Z,100.00
2023-03-22T01:48:25.438Z,100.00
2023-03-22T01:51:04.258Z,100.00
2023-03-22T01:53:44.293Z,100.00
2023-03-22T01:56:14.773Z,100.00
2023-03-22T01:58:44.145Z,100.00
2023-03-22T02:01:14.555Z,100.00
2023-03-22T02:03:57.029Z,100.00
2023-03-22T02:06:29.962Z,100.00
2023-03-22T02:09:06.747Z,100.00
2023-03-22T02:11:41.579Z,100.00
2023-03-22T02:14:47.004Z,100.00
2023-03-22T02:17:35.323Z,100.00
2023-03-22T02:21:01.874Z,100.00
2023-03-22T02:24:06.781Z,100.00
2023-03-22T02:27:23.625Z,100.00
2023-03-22T02:30:09.362Z,100.00
2023-03-22T02:33:25.596Z,100.00
2023-03-22T02:36:23.844Z,100.00
2023-03-22T02:39:18.082Z,100.00
2023-03-22T02:42:05.777Z,100.00
2023-03-22T02:44:43.062Z,100.00
2023-03-22T02:47:26.133Z,100.00
2023-03-22T02:50:07.207Z,100.00
2023-03-22T02:52:43.753Z,100.00
2023-03-22T02:55:21.926Z,100.00
2023-03-22T02:57:57.937Z,100.00
2023-03-22T03:00:29.095Z,100.00
2023-03-22T03:03:11.268Z,100.00
2023-03-22T03:05:44.981Z,100.00
2023-03-22T03:08:18.255Z,100.00
2023-03-22T03:10:50.375Z,100.00
2023-03-22T03:13:20.851Z,100.00
2023-03-22T03:15:58.986Z,100.00
2023-03-22T03:18:46.005Z,100.00
2023-03-22T03:21:32.756Z,100.00
2023-03-22T03:24:22.182Z,100.00
2023-03-22T03:27:01.962Z,100.00
2023-03-22T03:29:41.621Z,100.00
2023-03-22T03:32:18.381Z,100.00
2023-03-22T03:34:55.106Z,100.00
2023-03-22T03:37:28.563Z,100.00
2023-03-22T03:40:05.890Z,100.00
2023-03-22T03:42:38.170Z,100.00
2023-03-22T03:45:09.785Z,100.00
2023-03-22T03:47:40.607Z,100.00
2023-03-22T03:50:11.197Z,100.00
2023-03-22T03:52:40.163Z,100.00
2023-03-22T03:55:09.781Z,100.00
2023-03-22T03:57:39.446Z,100.00
2023-03-22T04:00:10.733Z,100.00
2023-03-22T04:02:47.909Z,100.00
2023-03-22T04:05:36.689Z,100.00
2023-03-22T04:08:05.326Z,100.00
2023-03-22T04:10:34.727Z,100.00
2023-03-22T04:13:04.741Z,100.00
2023-03-22T04:15:33.848Z,100.00
2023-03-22T04:18:07.184Z,100.00
2023-03-22T04:20:35.568Z,100.00
2023-03-22T04:23:04.000Z,100.00
2023-03-22T04:25:33.990Z,100.00
2023-03-22T04:28:09.838Z,100.00
2023-03-22T04:30:38.794Z,100.00
2023-03-22T04:33:22.951Z,100.00
2023-03-22T04:36:16.000Z,100.00
2023-03-22T04:39:00.020Z,100.00
2023-03-22T04:41:30.319Z,100.00
2023-03-22T04:44:03.039Z,100.00
2023-03-22T04:46:35.564Z,100.00
2023-03-22T04:49:07.391Z,100.00
2023-03-22T04:51:39.806Z,100.00
2023-03-22T04:54:19.338Z,100.00
2023-03-22T04:56:47.625Z,100.00
2023-03-22T04:59:20.379Z,100.00
2023-03-22T05:01:51.523Z,100.00
2023-03-22T05:04:24.475Z,100.00
2023-03-22T05:06:59.948Z,100.00
2023-03-22T05:09:37.066Z,100.00
2023-03-22T05:12:05.665Z,100.00
2023-03-22T05:14:42.442Z,100.00
2023-03-22T05:17:12.698Z,100.00
2023-03-22T05:19:41.851Z,100.00
2023-03-22T05:22:12.143Z,100.00
2023-03-22T05:24:47.961Z,100.00
2023-03-22T05:27:30.993Z,100.00
2023-03-22T05:30:19.383Z,100.00
2023-03-22T05:32:57.750Z,100.00
2023-03-22T05:35:26.563Z,100.00
2023-03-22T05:37:56.965Z,100.00
2023-03-22T05:40:29.051Z,100.00
2023-03-22T05:42:57.853Z,100.00
2023-03-22T05:45:31.780Z,100.00
2023-03-22T05:48:09.323Z,100.00
2023-03-22T05:50:39.176Z,100.00
2023-03-22T05:53:08.447Z,100.00
2023-03-22T05:55:57.730Z,100.00
2023-03-22T05:58:28.995Z,100.00
2023-03-22T06:01:07.494Z,100.00
2023-03-22T06:03:48.572Z,100.00
2023-03-22T06:06:30.665Z,100.00
2023-03-22T06:09:16.899Z,100.00
2023-03-22T06:11:49.144Z,100.00
2023-03-22T06:14:18.399Z,100.00
2023-03-22T06:17:04.996Z,100.00
2023-03-22T06:19:33.679Z,100.00
2023-03-22T06:22:05.869Z,100.00
2023-03-22T06:24:40.622Z,100.00
2023-03-22T06:27:11.370Z,100.00
2023-03-22T06:29:42.231Z,100.00
2023-03-22T06:32:12.100Z,100.00
2023-03-22T06:34:40.526Z,100.00
2023-03-22T06:37:11.126Z,100.00
2023-03-22T06:39:42.295Z,100.00
2023-03-22T06:42:11.954Z,100.00
2023-03-22T06:44:42.361Z,100.00
2023-03-22T06:47:41.974Z,100.00
2023-03-22T06:50:28.913Z,100.00
2023-03-22T06:53:08.318Z,100.00
2023-03-22T06:55:38.043Z,100.00
2023-03-22T06:58:16.165Z,100.00
2023-03-22T07:00:44.553Z,100.00
2023-03-22T07:03:14.370Z,100.00
2023-03-22T07:05:52.561Z,100.00
2023-03-22T07:08:21.282Z,100.00
2023-03-22T07:10:52.356Z,100.00
2023-03-22T07:13:24.693Z,100.00
2023-03-22T07:15:57.789Z,100.00
2023-03-22T07:18:45.889Z,100.00
2023-03-22T07:21:15.406Z,100.00
2023-03-22T07:23:47.947Z,100.00
2023-03-22T07:26:18.734Z,100.00
2023-03-22T07:28:50.365Z,100.00
2023-03-22T07:31:21.969Z,100.00
2023-03-22T07:34:00.585Z,100.00
2023-03-22T07:36:33.115Z,98.54
2023-03-22T07:39:02.651Z,97.65
2023-03-22T07:41:35.665Z,100.00
2023-03-22T07:44:23.173Z,100.00
2023-03-22T07:47:27.218Z,100.00
2023-03-22T07:50:17.576Z,97.62
2023-03-22T07:52:48.301Z,99.91
2023-03-22T07:55:17.509Z,97.76
2023-03-22T07:57:46.038Z,97.58
2023-03-22T08:00:15.677Z,94.23
2023-03-22T08:02:45.943Z,92.83
2023-03-22T08:05:30.622Z,86.89
2023-03-22T08:08:03.928Z,91.42
2023-03-22T08:10:32.916Z,91.94
2023-03-22T08:13:02.857Z,93.91
2023-03-22T08:15:31.789Z,95.27
2023-03-22T08:18:00.783Z,91.29
2023-03-22T08:20:42.229Z,91.65
2023-03-22T08:23:16.928Z,92.20
2023-03-22T08:26:04.855Z,93.42
2023-03-22T08:28:34.323Z,86.57
2023-03-22T08:31:03.065Z,80.62
2023-03-22T08:33:31.778Z,78.85
2023-03-22T08:36:11.333Z,76.16
2023-03-22T08:38:46.964Z,78.43
2023-03-22T08:41:18.556Z,81.62
2023-03-22T08:43:47.159Z,76.74
2023-03-22T08:46:15.805Z,75.58
2023-03-22T08:48:50.677Z,75.46
2023-03-22T08:51:31.325Z,68.26
2023-03-22T08:54:20.345Z,66.52
2023-03-22T08:56:54.730Z,67.71
2023-03-22T08:59:38.091Z,63.51
2023-03-22T09:02:18.847Z,66.73
2023-03-22T09:04:47.419Z,68.25
2023-03-22T09:07:18.937Z,68.28
2023-03-22T09:09:53.917Z,65.82
2023-03-22T09:12:22.753Z,62.64
2023-03-22T09:14:51.838Z,64.09
2023-03-22T09:17:22.460Z,64.13
2023-03-22T09:20:02.717Z,60.96
2023-03-22T09:22:39.574Z,62.71
2023-03-22T09:25:13.273Z,56.02
2023-03-22T09:27:44.882Z,60.76
2023-03-22T09:30:14.220Z,54.26
2023-03-22T09:32:43.248Z,54.46
2023-03-22T09:35:14.612Z,55.22
2023-03-22T09:37:56.264Z,54.94
2023-03-22T09:40:30.728Z,52.54
2023-03-22T09:43:03.973Z,52.49
2023-03-22T09:45:39.796Z,55.27
2023-03-22T09:48:18.863Z,51.25
2023-03-22T09:50:52.537Z,51.90
2023-03-22T09:53:28.454Z,54.76
2023-03-22T09:56:11.573Z,55.69
2023-03-22T09:58:47.521Z,56.49
2023-03-22T10:01:29.581Z,51.81
2023-03-22T10:04:34.029Z,51.17
2023-03-22T10:07:16.198Z,53.98
2023-03-22T10:10:01.196Z,53.99
2023-03-22T10:12:34.806Z,52.21
2023-03-22T10:15:11.867Z,52.11
2023-03-22T10:17:45.531Z,54.81
2023-03-22T10:20:26.890Z,53.13
2023-03-22T10:22:57.217Z,56.12
2023-03-22T10:25:36.965Z,52.08
2023-03-22T10:28:18.101Z,53.42
2023-03-22T10:30:54.638Z,51.89
2023-03-22T10:33:39.172Z,50.94
2023-03-22T10:36:15.090Z,51.21
2023-03-22T10:38:50.790Z,49.62
2023-03-22T10:41:24.093Z,50.59
2023-03-22T10:43:58.353Z,50.76
2023-03-22T10:46:34.716Z,50.70
2023-03-22T10:49:06.501Z,49.61
2023-03-22T10:51:44.078Z,48.54
2023-03-22T10:54:17.102Z,47.68
2023-03-22T10:56:47.123Z,48.46
2023-03-22T10:59:48.411Z,48.25
2023-03-22T11:02:26.940Z,47.62
2023-03-22T11:04:59.319Z,47.09
2023-03-22T11:07:36.619Z,46.58
2023-03-22T11:10:24.550Z,46.33
2023-03-22T11:12:58.168Z,43.37
2023-03-22T11:15:33.005Z,45.05
2023-03-22T11:18:08.111Z,44.76
2023-03-22T11:20:37.265Z,44.80
2023-03-22T11:23:07.481Z,47.76
2023-03-22T11:25:44.890Z,46.44
2023-03-22T11:28:22.213Z,47.27
2023-03-22T11:31:07.563Z,47.08
2023-03-22T11:33:37.525Z,49.42
2023-03-22T11:36:17.649Z,46.55
2023-03-22T11:38:47.425Z,46.30
2023-03-22T11:41:25.642Z,46.92
2023-03-22T11:43:59.485Z,44.87
2023-03-22T11:46:28.753Z,45.28
2023-03-22T11:49:03.153Z,46.83
2023-03-22T11:51:35.261Z,45.20
2023-03-22T11:54:15.934Z,43.38
2023-03-22T11:56:48.759Z,45.92
2023-03-22T11:59:25.845Z,45.18
2023-03-22T12:02:01.451Z,45.65
2023-03-22T12:04:36.121Z,44.36
2023-03-22T12:07:15.500Z,45.36
2023-03-22T12:09:52.012Z,43.16
2023-03-22T12:12:26.800Z,43.40
2023-03-22T12:15:04.853Z,43.25
2023-03-22T12:17:42.627Z,43.33
2023-03-22T12:20:27.927Z,42.59
2023-03-22T12:22:57.806Z,43.22
2023-03-22T12:25:33.398Z,43.43
2023-03-22T12:28:09.141Z,42.73
2023-03-22T12:30:46.052Z,44.13
2023-03-22T12:33:24.208Z,42.91
2023-03-22T12:35:59.486Z,42.91
2023-03-22T12:38:38.797Z,43.51
2023-03-22T12:41:13.625Z,44.03
2023-03-22T12:43:53.253Z,45.63
2023-03-22T12:46:27.776Z,43.79
2023-03-22T12:49:02.468Z,43.40
2023-03-22T12:51:31.241Z,43.15
2023-03-22T12:54:02.902Z,47.14
2023-03-22T12:56:45.330Z,47.43
2023-03-22T12:59:21.401Z,46.91
2023-03-22T13:01:56.008Z,43.43
2023-03-22T13:04:34.131Z,41.65
2023-03-22T13:07:16.644Z,43.03
2023-03-22T13:09:47.663Z,41.88
2023-03-22T13:12:33.317Z,42.17
2023-03-22T13:15:41.656Z,43.19
2023-03-22T13:18:33.479Z,43.18
2023-03-22T13:21:19.196Z,43.40
2023-03-22T13:24:20.604Z,42.80
2023-03-22T13:26:52.901Z,42.78
2023-03-22T13:29:25.471Z,41.96
2023-03-22T13:32:00.418Z,41.04
2023-03-22T13:34:39.466Z,41.46
2023-03-22T13:37:18.875Z,42.10
2023-03-22T13:39:53.917Z,42.53
2023-03-22T13:42:29.484Z,44.64
2023-03-22T13:45:03.802Z,42.52
2023-03-22T13:47:38.196Z,41.58
2023-03-22T13:50:20.029Z,39.90
2023-03-22T13:53:00.643Z,39.98
2023-03-22T13:55:48.190Z,39.94
2023-03-22T13:58:49.675Z,43.16
2023-03-22T14:01:28.261Z,43.07
2023-03-22T14:04:03.399Z,42.52
2023-03-22T14:06:43.519Z,41.48
2023-03-22T14:09:15.789Z,40.83
2023-03-22T14:11:50.152Z,42.23
2023-03-22T14:14:25.276Z,44.50
2023-03-22T14:17:07.256Z,44.36
2023-03-22T14:19:37.713Z,43.98
